Terminal Aerodrome Forecast
Issued by NWS Jackson, MS

Home | Current Version | Previous Version | Text Only | Print | Product List | Glossary On
Versions: 1 2 3 4 5 6 7 8 9 10 11 12 13 14
000
FTUS44 KMEG 012320
TAFTUP
TAF
KTUP 012320Z 0200/0224 12004KT P6SM BKN250
     FM020100 00000KT P6SM BKN250
      TEMPO 0208/0212 4SM BR
     FM021500 14002KT P6SM SCT250=

USA.gov is the U.S. government's official web portal to all federal, state and local government web resources and services.